Time;durP1;ratioP1;P1;durP2;ratioP2;P2;SDS_P1;SDS_P2;PMS_P1;PMS_P2;Temp;Humidity;BMP_temperature;BMP_pressure;BME280_temperature;BME280_humidity;BME280_pressure;Samples;Min_cycle;Max_cycle;Signal;HPM_P1;HPM_P2
2023/09/05 00:00:26;;;;;;;4.63;3.00;;;20.50;51.60;;;21.83;42.16;98130.13;5016610;28;20042;-58
2023/09/05 00:02:54;;;;;;;3.08;2.67;;;20.50;51.60;;;21.84;41.89;98128.22;5020536;28;20167;-57
2023/09/05 00:05:22;;;;;;;3.83;3.00;;;20.40;51.30;;;21.84;41.69;98125.53;5021015;28;20203;-57
2023/09/05 00:07:49;;;;;;;5.45;3.30;;;20.50;51.20;;;21.82;41.57;98130.34;5017716;28;20053;-58
2023/09/05 00:10:17;;;;;;;5.55;3.42;;;20.40;50.90;;;21.77;41.62;98128.31;5017404;28;20050;-58
2023/09/05 00:12:46;;;;;;;3.55;3.25;;;20.40;50.80;;;21.73;41.61;98127.09;5018350;28;20330;-58
2023/09/05 00:15:14;;;;;;;4.72;3.13;;;20.40;50.50;;;21.66;41.53;98120.88;5019398;28;20049;-57
2023/09/05 00:17:43;;;;;;;4.35;3.30;;;20.40;50.20;;;21.65;41.85;98121.09;5018351;28;20361;-55
2023/09/05 00:20:15;;;;;;;2.67;2.40;;;20.40;50.30;;;21.62;41.47;98116.97;5016335;28;20048;-57
2023/09/05 00:22:43;;;;;;;4.30;3.00;;;20.40;50.00;;;21.61;41.50;98123.41;5020556;28;20042;-59
2023/09/05 00:25:11;;;;;;;3.92;2.85;;;20.40;49.90;;;21.61;41.20;98126.94;5020602;28;20053;-57
2023/09/05 00:27:40;;;;;;;4.25;2.92;;;20.40;49.40;;;21.60;40.69;98121.78;5017648;28;20053;-57
2023/09/05 00:30:10;;;;;;;4.28;2.83;;;20.40;49.40;;;21.57;40.73;98123.03;5023330;28;20049;-58
2023/09/05 00:32:40;;;;;;;3.47;2.90;;;20.40;49.30;;;21.55;40.57;98125.13;5018832;28;20509;-58
2023/09/05 00:35:08;;;;;;;3.35;2.80;;;20.30;49.10;;;21.51;40.81;98123.91;5019116;28;20046;-58
2023/09/05 00:37:37;;;;;;;3.63;2.85;;;20.30;49.10;;;21.52;40.23;98125.59;5025768;28;20042;-58
2023/09/05 00:40:05;;;;;;;5.95;3.72;;;20.30;48.80;;;21.52;40.43;98116.59;5016097;28;20053;-58
2023/09/05 00:42:33;;;;;;;4.15;3.00;;;20.20;48.90;;;21.53;40.55;98126.41;5026804;28;20053;-57
2023/09/05 00:45:01;;;;;;;3.55;2.40;;;20.20;48.80;;;21.50;40.34;98116.84;5018460;28;20049;-57
2023/09/05 00:47:29;;;;;;;4.95;2.90;;;20.20;48.70;;;21.50;40.55;98118.72;5028185;28;20504;-57
2023/09/05 00:49:58;;;;;;;4.15;2.90;;;20.10;48.80;;;21.49;40.44;98122.47;5020886;28;20053;-57
2023/09/05 00:52:28;;;;;;;3.78;2.90;;;20.10;48.80;;;21.47;40.25;98117.28;5003475;28;20506;-57
2023/09/05 00:54:55;;;;;;;4.00;2.60;;;20.00;49.00;;;21.48;39.97;98121.66;5016707;28;20045;-57
2023/09/05 00:57:24;;;;;;;3.55;2.42;;;20.00;49.20;;;21.46;40.34;98118.34;5016896;28;20050;-57
2023/09/05 00:59:52;;;;;;;3.83;2.38;;;20.00;49.30;;;21.45;40.02;98123.97;5015855;28;20042;-57
2023/09/05 01:02:19;;;;;;;5.20;3.08;;;19.90;49.30;;;21.42;40.57;98125.19;5026304;28;20050;-56
2023/09/05 01:04:47;;;;;;;5.00;2.63;;;19.90;49.50;;;21.38;40.45;98121.25;5020282;28;20216;-57
2023/09/05 01:07:54;;;;;;;3.50;2.65;;;19.80;49.40;;;21.32;40.18;98122.97;5018638;28;20049;-56
2023/09/05 01:10:37;;;;;;;3.47;2.78;;;19.90;49.10;;;21.31;40.37;98112.38;5022895;28;20041;-57
2023/09/05 01:13:05;;;;;;;5.05;3.13;;;19.80;49.30;;;21.30;40.49;98118.81;5015597;28;20429;-57
2023/09/05 01:15:34;;;;;;;4.10;2.95;;;19.70;49.60;;;21.29;40.08;98123.41;5016607;28;20046;-56
2023/09/05 01:18:02;;;;;;;3.03;2.63;;;19.70;49.70;;;21.26;40.38;98117.59;5019103;28;20046;-57
2023/09/05 01:20:45;;;;;;;3.70;3.00;;;19.70;49.60;;;21.22;40.41;98119.91;5019577;28;20111;-58
2023/09/05 01:23:17;;;;;;;4.00;2.55;;;19.70;49.20;;;21.18;40.50;98124.94;5015456;28;20417;-56
2023/09/05 01:25:45;;;;;;;3.05;2.72;;;19.70;49.30;;;21.16;40.36;98123.50;5015990;28;20420;-56
2023/09/05 01:28:14;;;;;;;3.20;2.45;;;19.70;49.40;;;21.14;40.50;98118.28;5018998;28;20041;-56
2023/09/05 01:30:42;;;;;;;4.20;2.90;;;19.70;49.40;;;21.12;40.21;98123.09;5016598;28;20057;-55
2023/09/05 01:33:13;;;;;;;3.10;2.30;;;19.70;49.30;;;21.09;40.42;98118.09;5005956;28;20076;-56
2023/09/05 01:35:40;;;;;;;4.53;2.63;;;19.70;49.10;;;21.07;40.55;98119.38;5018166;28;20524;-57
2023/09/05 01:38:08;;;;;;;3.35;2.47;;;19.70;49.10;;;21.03;40.69;98110.84;5019717;28;20064;-56
2023/09/05 01:40:36;;;;;;;5.68;3.17;;;19.70;49.10;;;21.01;40.37;98111.09;5010687;28;20056;-57
2023/09/05 01:43:04;;;;;;;3.72;2.72;;;19.70;49.30;;;21.04;40.38;98113.34;5019801;28;20037;-57
2023/09/05 01:45:31;;;;;;;3.38;2.40;;;19.60;49.30;;;21.03;40.63;98106.31;5018290;28;20050;-57
2023/09/05 01:47:59;;;;;;;4.63;2.83;;;19.60;49.40;;;21.01;40.62;98105.69;5019873;28;20049;-57
2023/09/05 01:50:32;;;;;;;6.70;2.97;;;19.60;49.70;;;21.00;40.91;98095.91;5034881;28;20057;-56
2023/09/05 01:53:00;;;;;;;4.03;2.83;;;19.50;49.80;;;20.98;40.78;98100.69;5014120;28;20054;-57
2023/09/05 01:55:28;;;;;;;4.90;3.80;;;19.50;49.90;;;20.97;40.68;98101.72;5045101;28;20496;-56
2023/09/05 01:57:55;;;;;;;3.10;2.28;;;19.50;50.10;;;20.93;40.96;98103.22;5008204;28;20074;-57
2023/09/05 02:00:23;;;;;;;4.28;2.70;;;19.50;49.90;;;20.92;40.81;98100.72;5010228;28;20429;-56
2023/09/05 02:02:50;;;;;;;4.35;2.70;;;19.50;50.00;;;20.91;40.71;98104.47;5019502;28;20046;-56
2023/09/05 02:05:18;;;;;;;3.60;2.65;;;19.50;50.20;;;20.89;41.20;98106.56;5022186;28;20050;-56
2023/09/05 02:07:45;;;;;;;4.35;2.75;;;19.50;50.30;;;20.90;41.34;98105.53;5019357;28;20056;-57
2023/09/05 02:10:13;;;;;;;4.10;2.92;;;19.50;50.40;;;20.89;41.26;98107.41;5018105;28;20060;-56
2023/09/05 02:12:45;;;;;;;3.47;2.80;;;19.50;50.30;;;20.89;41.64;98099.28;5028893;28;20049;-57
2023/09/05 02:15:13;;;;;;;3.33;3.03;;;19.50;50.40;;;20.87;41.22;98101.38;5022612;28;20034;-56
2023/09/05 02:17:41;;;;;;;3.67;2.80;;;19.50;50.40;;;20.89;41.35;98098.47;5027849;28;20303;-57
2023/09/05 02:20:09;;;;;;;3.03;2.30;;;19.50;50.60;;;20.88;41.11;98099.50;5017960;28;20042;-57
2023/09/05 02:22:40;;;;;;;5.05;2.53;;;19.50;50.60;;;20.86;41.36;98097.03;5019824;28;20034;-57
2023/09/05 02:25:08;;;;;;;3.22;2.47;;;19.50;50.60;;;20.83;41.51;98100.16;5021285;28;20072;-54
2023/09/05 02:27:35;;;;;;;3.83;3.00;;;19.50;50.80;;;20.83;41.60;98106.38;5030757;27;20500;-57
2023/09/05 02:30:06;;;;;;;3.85;2.75;;;19.30;51.20;;;20.84;41.48;98105.34;5034980;28;20077;-55
2023/09/05 02:34:02;;;;;;;5.88;2.83;;;19.30;51.20;;;20.77;41.67;98109.97;5003064;28;20223;-57
2023/09/05 02:36:30;;;;;;;3.38;2.50;;;19.30;51.40;;;20.78;41.57;98110.78;5009533;28;20049;-56
2023/09/05 02:38:59;;;;;;;4.03;2.67;;;19.20;51.40;;;20.76;42.04;98123.69;5021149;28;20056;-56
2023/09/05 02:41:26;;;;;;;6.88;2.70;;;19.20;51.60;;;20.75;41.36;98120.16;5004989;28;20049;-56
2023/09/05 02:43:54;;;;;;;3.75;2.30;;;19.20;51.70;;;20.75;41.70;98117.47;5010489;28;20057;-57
2023/09/05 02:46:22;;;;;;;5.28;2.60;;;19.20;51.90;;;20.74;41.70;98114.97;5028096;28;20069;-53
2023/09/05 02:48:49;;;;;;;5.03;3.08;;;19.10;52.00;;;20.72;41.77;98109.75;5012577;28;20437;-57
2023/09/05 02:51:17;;;;;;;4.13;2.40;;;19.10;51.90;;;20.70;41.75;98113.75;5028206;28;20045;-57
2023/09/05 02:53:44;;;;;;;3.55;2.58;;;19.10;52.20;;;20.70;41.96;98113.75;5002347;28;20049;-56
2023/09/05 02:56:13;;;;;;;3.88;2.42;;;19.10;52.20;;;20.69;41.87;98103.97;5000758;28;20493;-57
2023/09/05 02:58:40;;;;;;;4.30;2.38;;;19.10;52.20;;;20.69;42.06;98117.50;5000830;28;20053;-57
2023/09/05 03:01:12;;;;;;;3.13;2.25;;;19.10;52.10;;;20.67;41.98;98117.72;5002485;28;20046;-57
2023/09/05 03:03:40;;;;;;;3.15;2.50;;;19.10;52.00;;;20.66;41.85;98118.75;5015992;28;20503;-56
2023/09/05 03:06:12;;;;;;;5.90;3.45;;;19.10;52.00;;;20.67;42.13;98116.88;5022424;28;20061;-57
2023/09/05 03:08:45;;;;;;;3.35;2.47;;;19.10;52.20;;;20.66;41.93;98124.16;5022805;27;20517;-57
2023/09/05 03:11:18;;;;;;;3.70;2.60;;;19.10;52.20;;;20.63;42.38;98114.59;5029002;28;20052;-57
2023/09/05 03:13:47;;;;;;;2.67;2.20;;;19.10;52.60;;;20.60;42.36;98120.44;5020280;28;20413;-57
2023/09/05 03:16:17;;;;;;;3.92;3.00;;;19.00;52.40;;;20.60;42.17;98116.91;5014538;28;20531;-57
2023/09/05 03:18:48;;;;;;;3.35;2.60;;;19.10;52.40;;;20.57;42.37;98115.44;5017464;28;20050;-57
2023/09/05 03:21:17;;;;;;;5.20;2.70;;;19.00;52.30;;;20.55;42.46;98113.97;5020838;28;20048;-55
2023/09/05 03:23:44;;;;;;;3.42;2.47;;;19.00;52.50;;;20.54;42.55;98109.63;5029852;27;20049;-57
2023/09/05 03:26:12;;;;;;;3.40;2.50;;;19.00;52.70;;;20.52;42.27;98109.81;5026402;28;20050;-55
2023/09/05 03:28:43;;;;;;;4.00;2.78;;;18.90;52.90;;;20.50;42.35;98113.78;5027927;28;20060;-57
2023/09/05 03:31:14;;;;;;;4.82;2.63;;;18.90;53.00;;;20.50;42.72;98113.78;5004512;28;20052;-57
2023/09/05 03:33:42;;;;;;;3.33;2.33;;;18.90;53.20;;;20.48;42.72;98111.31;5020939;28;20038;-57
2023/09/05 03:36:11;;;;;;;3.92;2.58;;;18.90;53.50;;;20.45;42.86;98115.28;5019028;28;20058;-57
2023/09/05 03:38:38;;;;;;;3.80;2.88;;;18.80;53.50;;;20.43;42.65;98111.94;5030072;27;20511;-56
2023/09/05 03:41:06;;;;;;;3.92;3.13;;;18.80;53.70;;;20.42;42.81;98109.44;5026928;28;20045;-56
2023/09/05 03:43:34;;;;;;;5.20;3.47;;;18.80;53.70;;;20.40;42.87;98103.44;5022494;28;20049;-57
2023/09/05 03:46:01;;;;;;;4.50;2.50;;;18.80;53.70;;;20.37;43.06;98101.97;5003351;28;20053;-58
2023/09/05 03:48:29;;;;;;;4.75;3.60;;;18.80;53.70;;;20.31;42.99;98096.59;5021498;28;20053;-57
2023/09/05 03:50:57;;;;;;;4.70;2.90;;;18.80;53.60;;;20.23;43.56;98106.59;5020559;28;20049;-57
2023/09/05 03:53:24;;;;;;;4.35;3.00;;;18.80;53.60;;;20.19;43.37;98096.41;5015627;28;20505;-59
2023/09/05 03:55:52;;;;;;;3.58;2.85;;;18.80;53.60;;;20.13;43.60;98098.09;5026809;28;20049;-57
2023/09/05 03:58:20;;;;;;;3.90;2.92;;;18.90;53.90;;;20.11;43.86;98102.06;5036400;28;20087;-57
2023/09/05 04:00:48;;;;;;;5.05;3.42;;;18.80;53.70;;;20.12;43.96;98093.72;5024366;28;20046;-57
2023/09/05 04:03:16;;;;;;;7.45;3.20;;;18.80;54.00;;;20.12;43.86;98095.59;5011092;28;20041;-57
2023/09/05 04:05:44;;;;;;;3.97;2.83;;;18.80;54.00;;;20.13;43.71;98092.69;5020390;28;20044;-55
2023/09/05 04:08:12;;;;;;;3.88;2.90;;;18.70;54.40;;;20.17;43.90;98090.41;5026534;28;20417;-57
2023/09/05 04:10:39;;;;;;;4.65;3.10;;;18.70;54.40;;;20.16;43.93;98086.00;5017623;28;20045;-58
2023/09/05 04:13:07;;;;;;;3.60;3.13;;;18.70;54.50;;;20.16;43.84;98077.91;5019423;28;20050;-57
2023/09/05 04:15:36;;;;;;;4.05;2.83;;;18.70;54.30;;;20.14;43.89;98083.56;5019619;28;20041;-58
2023/09/05 04:18:04;;;;;;;3.90;3.00;;;18.80;54.50;;;20.15;43.74;98090.59;5017591;28;20056;-57
2023/09/05 04:20:33;;;;;;;4.85;3.40;;;18.80;54.40;;;20.11;44.04;98088.53;5016769;28;20046;-58
2023/09/05 04:23:00;;;;;;;3.83;2.58;;;18.80;54.40;;;20.10;44.03;98095.78;5016990;28;20042;-57
2023/09/05 04:25:28;;;;;;;4.13;3.00;;;18.80;54.40;;;20.09;44.12;98094.16;5020922;28;20048;-57
2023/09/05 04:27:56;;;;;;;5.10;3.20;;;18.80;54.30;;;20.09;44.22;98091.44;5025900;28;20045;-57
2023/09/05 04:30:23;;;;;;;3.50;2.95;;;18.90;54.30;;;20.09;44.35;98094.16;5021150;28;20054;-58
2023/09/05 04:32:51;;;;;;;3.38;2.83;;;18.90;54.30;;;20.08;44.16;98102.47;5020412;28;20041;-57
2023/09/05 04:35:20;;;;;;;5.55;3.97;;;18.90;54.30;;;20.06;44.40;98098.13;5029203;28;20046;-58
2023/09/05 04:37:52;;;;;;;3.60;2.70;;;18.90;54.40;;;20.10;44.22;98101.19;5028869;27;20052;-58
2023/09/05 04:40:20;;;;;;;6.85;2.97;;;18.90;54.50;;;20.12;44.19;98101.00;5023924;28;20367;-58
2023/09/05 04:42:47;;;;;;;4.95;3.42;;;18.90;54.40;;;20.10;44.20;98106.59;5028667;28;20041;-58
2023/09/05 04:45:15;;;;;;;3.63;2.53;;;18.80;54.50;;;20.09;44.54;98098.75;5019211;28;20041;-58
2023/09/05 04:47:43;;;;;;;4.28;2.67;;;18.80;54.50;;;20.06;44.51;98098.13;5021924;28;20042;-58
2023/09/05 04:50:11;;;;;;;4.10;2.88;;;18.80;54.70;;;20.09;44.49;98091.44;5019673;28;20042;-59
2023/09/05 04:52:38;;;;;;;4.45;3.33;;;18.80;54.70;;;20.09;44.34;98091.44;5019898;28;20046;-59
2023/09/05 04:55:06;;;;;;;5.65;3.38;;;18.70;54.90;;;20.04;44.65;98089.38;5018738;28;20416;-58
2023/09/05 04:57:34;;;;;;;4.20;3.13;;;18.70;55.20;;;20.02;44.52;98091.44;5022565;28;20046;-57
2023/09/05 05:00:02;;;;;;;3.78;2.83;;;18.70;55.20;;;20.02;44.52;98086.03;5019908;28;20120;-58
2023/09/05 05:02:31;;;;;;;3.20;2.88;;;18.70;55.20;;;20.04;44.78;98100.16;5019820;28;20048;-58
2023/09/05 05:04:59;;;;;;;4.72;3.05;;;18.70;55.40;;;20.03;44.60;98098.53;5017995;28;20044;-58
2023/09/05 05:07:26;;;;;;;3.25;2.53;;;18.70;55.40;;;20.05;44.63;98099.16;5016991;28;20046;-57
2023/09/05 05:09:54;;;;;;;3.60;2.67;;;18.80;55.20;;;20.07;44.63;98104.34;5028113;28;20052;-58
2023/09/05 05:12:21;;;;;;;3.55;2.80;;;18.80;55.50;;;20.09;44.97;98107.66;5019522;28;20423;-58
2023/09/05 05:14:49;;;;;;;4.90;3.40;;;18.70;55.50;;;20.13;44.59;98102.66;5020095;28;20408;-58
2023/09/05 05:17:17;;;;;;;5.95;3.00;;;18.80;55.50;;;20.14;45.01;98107.03;5016850;28;20038;-59
2023/09/05 05:19:44;;;;;;;3.92;3.00;;;18.70;55.80;;;20.16;44.65;98104.94;5015905;28;20049;-59
2023/09/05 05:22:12;;;;;;;3.38;2.53;;;18.70;56.00;;;20.16;44.53;98107.63;5018629;28;20054;-59
2023/09/05 05:24:39;;;;;;;4.85;3.13;;;18.70;55.80;;;20.15;44.93;98114.09;5020098;28;20040;-59
2023/09/05 05:27:07;;;;;;;4.03;2.83;;;18.70;55.90;;;20.13;44.73;98111.59;5018081;28;20057;-59
2023/09/05 05:29:35;;;;;;;5.35;3.13;;;18.70;56.00;;;20.16;45.00;98111.19;5016458;28;20489;-59
2023/09/05 05:32:02;;;;;;;4.40;2.90;;;18.70;56.30;;;20.18;44.91;98108.25;5017044;28;20428;-59
2023/09/05 05:34:33;;;;;;;3.83;2.92;;;18.70;56.40;;;20.20;45.11;98114.28;5020001;28;20417;-59
2023/09/05 05:37:01;;;;;;;4.00;2.60;;;18.70;56.70;;;20.22;45.01;98112.19;5019005;28;20049;-59
2023/09/05 05:39:29;;;;;;;4.30;3.03;;;18.70;57.00;;;20.23;44.98;98106.59;5016653;28;20511;-59
2023/09/05 05:41:57;;;;;;;3.95;2.80;;;18.70;57.90;;;20.24;45.42;98112.84;5019560;28;20382;-59
2023/09/05 05:44:24;;;;;;;4.55;2.65;;;18.70;57.00;;;20.24;45.62;98110.13;5021480;27;20050;-59
2023/09/05 05:46:57;;;;;;;3.58;2.80;;;18.80;57.30;;;20.22;45.29;98110.34;5019849;28;20038;-59
2023/09/05 05:49:29;;;;;;;4.00;2.50;;;18.80;57.10;;;20.21;45.61;98114.06;5024027;28;20048;-58
2023/09/05 05:52:00;;;;;;;5.15;3.00;;;18.80;57.10;;;20.20;45.97;98115.13;5031350;27;20052;-59
2023/09/05 05:54:28;;;;;;;4.40;2.85;;;18.80;57.50;;;20.25;45.69;98123.41;5018505;28;20042;-60
2023/09/05 05:56:56;;;;;;;4.47;3.05;;;18.80;57.40;;;20.30;45.95;98128.22;5034599;28;20136;-59
2023/09/05 05:59:24;;;;;;;3.38;3.03;;;18.90;57.60;;;20.33;45.87;98132.34;5021581;28;20037;-60
2023/09/05 06:01:52;;;;;;;3.67;2.47;;;18.90;57.70;;;20.35;45.83;98135.66;5023044;28;20042;-60
2023/09/05 06:04:20;;;;;;;3.00;2.42;;;18.90;58.00;;;20.37;46.07;98139.81;5017936;28;20045;-58
2023/09/05 06:06:49;;;;;;;3.08;2.67;;;18.80;58.10;;;20.39;45.78;98145.00;5019981;28;20405;-60
2023/09/05 06:09:18;;;;;;;4.47;3.50;;;18.80;58.20;;;20.41;45.98;98145.63;5021981;28;20523;-60
2023/09/05 06:11:46;;;;;;;4.80;3.10;;;18.80;58.30;;;20.42;46.03;98136.50;5021967;28;20488;-60
2023/09/05 06:14:14;;;;;;;5.95;2.90;;;18.80;58.50;;;20.43;46.08;98143.53;5002496;28;20046;-60
2023/09/05 06:16:47;;;;;;;3.42;2.55;;;18.80;59.00;;;20.46;46.08;98140.44;5016789;28;20072;-59
2023/09/05 06:19:17;;;;;;;3.55;2.40;;;18.90;59.20;;;20.47;46.29;98139.38;5020718;28;20053;-58
2023/09/05 06:21:46;;;;;;;4.38;2.72;;;18.90;59.10;;;20.49;46.46;98125.66;5022639;28;20042;-58
2023/09/05 06:24:14;;;;;;;5.60;3.03;;;18.90;59.00;;;20.52;46.32;98130.63;5018690;28;20049;-59
2023/09/05 06:26:44;;;;;;;5.50;2.97;;;18.90;59.00;;;20.55;46.31;98132.91;5018259;28;20042;-59
2023/09/05 06:29:12;;;;;;;3.50;2.65;;;19.00;59.30;;;20.56;46.34;98138.09;5019954;28;20050;-59
2023/09/05 06:31:40;;;;;;;3.80;2.97;;;19.00;59.20;;;20.58;46.79;98138.72;5022636;28;20424;-60
2023/09/05 06:34:08;;;;;;;5.38;3.13;;;19.10;59.50;;;20.61;46.87;98143.75;5020707;28;20053;-59
2023/09/05 06:36:36;;;;;;;4.35;3.10;;;19.10;59.80;;;20.62;47.20;98142.69;5018921;28;20057;-59
2023/09/05 06:39:07;;;;;;;4.18;2.78;;;19.20;59.90;;;20.64;47.43;98146.00;5020096;28;20046;-59
2023/09/05 06:41:35;;;;;;;6.45;2.92;;;19.20;60.30;;;20.67;47.12;98147.47;5022432;28;20507;-60
2023/09/05 06:44:03;;;;;;;3.35;2.75;;;19.30;60.20;;;20.72;47.15;98142.22;5021024;28;20052;-60
2023/09/05 06:46:35;;;;;;;3.75;2.75;;;19.30;60.10;;;20.76;47.30;98146.19;5018218;28;20038;-60
2023/09/05 06:49:03;;;;;;;3.13;2.60;;;19.40;59.90;;;20.80;47.33;98143.88;5018332;28;20049;-60
2023/09/05 06:51:30;;;;;;;5.47;2.60;;;19.50;59.90;;;20.84;47.38;98142.41;5021193;28;20046;-60
2023/09/05 06:54:01;;;;;;;5.72;2.78;;;19.50;59.70;;;20.88;47.12;98138.22;5021691;28;20037;-59
2023/09/05 06:56:28;;;;;;;3.55;2.95;;;19.60;60.10;;;20.92;47.05;98146.72;5018729;28;20042;-59
2023/09/05 06:58:56;;;;;;;4.13;2.63;;;19.60;59.60;;;20.95;46.90;98143.59;5030149;28;20045;-59
2023/09/05 07:01:28;;;;;;;3.80;2.90;;;19.70;59.40;;;20.99;46.84;98139.41;5018595;28;20046;-58
2023/09/05 07:03:56;;;;;;;3.10;2.13;;;19.70;59.20;;;21.03;46.84;98138.78;5016611;28;20046;-59
2023/09/05 07:06:23;;;;;;;2.58;2.38;;;19.80;59.00;;;21.08;47.33;98138.13;5021942;28;20042;-59
2023/09/05 07:08:51;;;;;;;4.18;2.35;;;19.80;58.90;;;21.11;46.66;98142.25;5021980;28;20037;-59
2023/09/05 07:11:19;;;;;;;4.47;2.70;;;19.90;58.70;;;21.16;47.03;98134.31;5017904;28;20053;-59
2023/09/05 07:13:47;;;;;;;3.53;2.60;;;19.90;58.50;;;21.19;47.02;98139.28;5017887;28;20042;-59
2023/09/05 07:16:15;;;;;;;5.90;2.55;;;20.00;58.60;;;21.22;46.45;98142.41;5027489;28;20053;-59
2023/09/05 07:18:42;;;;;;;3.85;2.60;;;20.00;58.20;;;21.24;46.38;98137.59;5021964;28;20048;-59
2023/09/05 07:21:10;;;;;;;4.80;3.00;;;20.10;57.80;;;21.29;46.65;98146.97;5019534;28;20048;-59
2023/09/05 07:23:38;;;;;;;3.38;2.92;;;20.10;57.90;;;21.33;46.79;98140.06;5016734;28;20057;-59
2023/09/05 07:26:07;;;;;;;6.00;2.80;;;20.10;57.80;;;21.35;46.22;98136.06;5019158;28;20042;-58
2023/09/05 07:28:35;;;;;;;4.70;2.80;;;20.20;57.30;;;21.39;46.30;98136.47;5020627;28;20049;-62
2023/09/05 07:31:03;;;;;;;3.25;2.65;;;20.20;57.40;;;21.45;46.32;98141.03;5021136;28;20053;-59
2023/09/05 07:33:31;;;;;;;5.15;2.70;;;20.20;57.50;;;21.48;46.21;98137.91;5017686;28;20046;-59
2023/09/05 07:35:59;;;;;;;2.88;2.55;;;20.30;57.30;;;21.52;46.47;98141.84;5017814;28;20068;-59
2023/09/05 07:38:28;;;;;;;7.32;3.22;;;20.40;57.30;;;21.56;46.55;98142.22;5018127;28;20046;-59
2023/09/05 07:41:07;;;;;;;3.10;2.67;;;20.40;57.20;;;21.56;46.37;98137.63;5033537;28;20049;-59
2023/09/05 07:43:35;;;;;;;4.28;2.60;;;20.40;57.10;;;21.63;46.48;98141.13;5021260;28;20041;-59
2023/09/05 07:46:03;;;;;;;2.83;2.42;;;20.40;57.10;;;21.67;46.15;98143.38;5021003;28;20389;-59
2023/09/05 07:48:31;;;;;;;4.65;3.15;;;20.50;57.00;;;21.71;46.41;98134.56;5016459;28;20053;-59
2023/09/05 07:51:04;;;;;;;4.15;3.25;;;20.50;57.10;;;21.77;46.42;98139.13;5016994;28;20059;-59
2023/09/05 07:53:35;;;;;;;3.90;2.33;;;20.60;57.10;;;21.81;45.75;98137.63;5024023;28;20050;-59
2023/09/05 07:56:03;;;;;;;6.60;3.28;;;20.60;56.80;;;21.86;45.85;98136.16;5016879;28;20497;-59
2023/09/05 07:58:31;;;;;;;4.00;3.33;;;20.70;57.00;;;21.91;45.76;98133.59;5021230;28;20524;-59
2023/09/05 08:00:59;;;;;;;3.63;2.90;;;20.70;56.70;;;21.94;45.95;98133.97;5021255;28;20545;-59
2023/09/05 08:03:27;;;;;;;5.55;3.38;;;20.80;56.70;;;21.99;45.70;98136.03;5017161;28;20038;-59
2023/09/05 08:05:55;;;;;;;3.30;2.67;;;20.90;56.80;;;22.02;45.70;98132.84;5017387;28;20046;-59
2023/09/05 08:08:23;;;;;;;2.92;2.17;;;20.80;56.60;;;22.07;46.01;98132.19;5019329;28;20038;-58
2023/09/05 08:10:51;;;;;;;4.78;2.80;;;20.90;56.60;;;22.12;46.04;98135.06;5020885;28;20056;-59
2023/09/05 08:13:19;;;;;;;4.18;2.63;;;21.00;57.00;;;22.17;45.98;98133.34;5017003;28;20049;-58
2023/09/05 08:15:47;;;;;;;3.90;2.85;;;21.10;56.90;;;22.23;45.84;98134.31;5017621;28;20049;-59
2023/09/05 08:18:14;;;;;;;3.60;2.78;;;21.10;56.40;;;22.27;45.57;98132.84;5019125;28;20046;-59
2023/09/05 08:20:42;;;;;;;3.80;2.50;;;21.10;56.00;;;22.30;44.51;98143.25;5019269;28;20596;-59
2023/09/05 08:23:11;;;;;;;4.63;2.30;;;21.20;54.30;;;22.34;44.27;98138.22;5034319;28;20211;-59
2023/09/05 08:25:39;;;;;;;6.68;2.75;;;21.20;53.70;;;22.41;44.44;98147.09;5017348;28;20038;-59
2023/09/05 08:28:07;;;;;;;4.00;2.47;;;21.30;54.10;;;22.48;44.13;98141.63;5016708;28;20061;-59
2023/09/05 08:30:34;;;;;;;2.85;2.20;;;21.30;54.00;;;22.54;43.60;98138.81;5019749;28;20054;-59
2023/09/05 08:33:02;;;;;;;3.05;2.47;;;21.50;53.30;;;22.58;43.56;98134.59;5020429;28;20037;-59
2023/09/05 08:35:30;;;;;;;3.53;2.13;;;21.50;52.90;;;22.64;43.36;98137.47;5016252;28;20718;-60
2023/09/05 08:38:02;;;;;;;3.42;2.08;;;21.60;52.70;;;22.69;43.24;98143.03;5017032;28;20049;-60
2023/09/05 08:40:34;;;;;;;2.85;2.28;;;21.60;52.50;;;22.75;43.25;98136.69;5017224;28;20049;-60
2023/09/05 08:43:06;;;;;;;5.38;2.40;;;21.70;52.10;;;22.81;43.25;98139.31;5015507;28;20046;-60
2023/09/05 08:45:36;;;;;;;5.80;3.10;;;21.70;51.90;;;22.86;43.06;98137.84;5020108;28;20389;-59
2023/09/05 08:48:05;;;;;;;3.33;2.80;;;21.70;51.90;;;22.90;42.92;98141.75;5019127;28;20041;-59
2023/09/05 08:50:36;;;;;;;2.70;2.17;;;21.80;51.60;;;22.95;42.56;98137.28;5021083;28;20052;-59
2023/09/05 08:53:11;;;;;;;3.38;3.05;;;21.80;51.10;;;22.98;42.70;98125.94;5018573;28;20058;-59
2023/09/05 08:55:40;;;;;;;3.55;2.38;;;21.90;51.20;;;23.02;42.87;98137.19;5020376;28;20049;-60
2023/09/05 08:58:14;;;;;;;4.85;2.95;;;21.90;51.70;;;23.08;42.31;98125.44;5018504;28;20041;-60
2023/09/05 09:00:43;;;;;;;;;;;22.00;50.60;;;23.13;42.58;98133.72;5016366;28;20042;-59
2023/09/05 09:03:11;;;;;;;5.00;2.50;;;22.00;50.20;;;23.22;41.81;98123.34;5017258;28;19932;-60
2023/09/05 09:05:39;;;;;;;3.67;1.98;;;22.10;50.70;;;23.23;42.04;98126.91;5020002;28;20038;-59
2023/09/05 09:08:07;;;;;;;4.30;2.65;;;22.10;51.20;;;23.29;42.14;98123.28;5019766;28;20042;-60
2023/09/05 09:10:35;;;;;;;5.47;2.92;;;22.10;51.00;;;23.32;42.03;98126.38;5015481;28;20045;-60
2023/09/05 09:13:18;;;;;;;2.83;2.33;;;22.20;51.10;;;23.39;42.15;98120.81;5016146;28;20099;-60
2023/09/05 09:15:46;;;;;;;4.75;2.72;;;22.30;50.20;;;23.45;41.50;98127.22;5018307;28;20049;-60
2023/09/05 09:18:17;;;;;;;4.32;2.38;;;22.30;50.30;;;23.48;41.45;98129.47;5017289;28;20041;-60
2023/09/05 09:20:51;;;;;;;3.53;2.90;;;22.40;49.80;;;23.51;41.47;98127.09;5016700;28;20042;-60
2023/09/05 09:23:27;;;;;;;3.35;2.15;;;22.40;49.70;;;23.56;41.31;98135.38;5018014;28;20053;-60
2023/09/05 09:25:57;;;;;;;5.40;2.53;;;22.50;49.40;;;23.61;41.23;98126.53;5019823;28;20115;-59
2023/09/05 09:28:31;;;;;;;2.50;2.25;;;22.50;49.60;;;23.64;41.14;98126.06;5017191;28;20428;-57
2023/09/05 09:31:08;;;;;;;4.35;2.10;;;22.60;49.40;;;23.72;40.97;98130.34;5015482;28;20042;-57
2023/09/05 09:33:36;;;;;;;2.33;1.80;;;22.60;48.90;;;23.76;40.82;98126.91;5016054;28;20046;-58
2023/09/05 09:36:12;;;;;;;3.70;1.85;;;22.70;49.20;;;23.83;40.45;98113.25;5015161;28;20046;-58
2023/09/05 09:38:40;;;;;;;5.18;2.05;;;22.70;48.10;;;23.86;40.05;98117.38;5016053;28;20058;-58
2023/09/05 09:41:09;;;;;;;3.38;2.67;;;22.80;47.90;;;23.90;40.14;98111.22;5016285;28;20042;-58
2023/09/05 09:43:38;;;;;;;3.63;2.20;;;22.80;48.20;;;23.95;40.52;98111.34;5019250;28;20413;-55
2023/09/05 09:46:08;;;;;;;4.22;2.38;;;22.80;48.40;;;23.99;40.30;98114.44;5018478;28;20041;-57
2023/09/05 09:48:36;;;;;;;3.00;2.35;;;22.90;48.30;;;24.06;40.21;98115.16;5027210;28;20049;-58
2023/09/05 09:51:06;;;;;;;2.75;2.30;;;23.00;48.40;;;24.11;40.31;98107.09;5018222;28;20056;-58
2023/09/05 09:53:39;;;;;;;2.80;2.47;;;23.00;48.10;;;24.15;39.99;98105.53;5015571;28;20049;-58
2023/09/05 09:56:11;;;;;;;8.18;2.72;;;23.00;47.80;;;24.21;40.31;98106.47;5028003;28;20076;-58
2023/09/05 09:58:45;;;;;;;3.55;2.30;;;23.10;48.80;;;24.25;40.52;98098.69;5011486;28;20054;-57
2023/09/05 10:01:13;;;;;;;;;;;23.10;48.90;;;24.29;40.79;98097.13;5017895;28;20416;-58
2023/09/05 10:03:44;;;;;;;3.13;2.38;;;23.20;48.40;;;24.37;40.98;98086.72;5014200;28;20293;-58
2023/09/05 10:06:13;;;;;;;6.28;2.55;;;23.20;49.70;;;24.38;40.77;98087.53;5015098;28;20050;-58
2023/09/05 10:08:42;;;;;;;2.75;2.05;;;23.20;49.20;;;24.42;41.06;98090.63;5019305;28;20037;-60
2023/09/05 10:11:14;;;;;;;3.38;2.50;;;23.30;49.60;;;24.45;40.61;98092.88;5017146;28;20042;-58
2023/09/05 10:13:44;;;;;;;4.95;2.20;;;23.30;49.20;;;24.48;40.65;98089.66;5010845;28;20049;-58
2023/09/05 10:16:13;;;;;;;4.65;2.40;;;23.40;49.50;;;24.54;40.57;98080.56;5018307;28;20497;-58
2023/09/05 10:18:46;;;;;;;3.05;2.30;;;23.40;48.60;;;24.60;40.47;98095.09;5014360;28;20516;-59
2023/09/05 10:21:16;;;;;;;5.65;2.60;;;23.50;48.60;;;24.62;40.06;98091.09;5012419;28;20045;-58
2023/09/05 10:23:44;;;;;;;2.58;2.17;;;23.50;48.10;;;24.65;39.87;98087.84;5017497;28;20041;-58
2023/09/05 10:26:13;;;;;;;3.60;2.35;;;23.60;48.20;;;24.68;39.88;98081.94;5018689;28;20052;-59
2023/09/05 10:28:41;;;;;;;3.17;2.33;;;23.60;47.80;;;24.74;39.55;98089.13;5018026;28;20038;-59